Time;durP1;ratioP1;P1;durP2;ratioP2;P2;SDS_P1;SDS_P2;PMS_P1;PMS_P2;Temp;Humidity;BMP_temperature;BMP_pressure;BME280_temperature;BME280_humidity;BME280_pressure;Samples;Min_cycle;Max_cycle;Signal;HPM_P1;HPM_P2
2022/03/04 00:00:27;;;;;;;39.45;32.50;;;8.30;76.60;;;;;;5089550;28;20139;-89
2022/03/04 00:02:55;;;;;;;43.63;34.55;;;8.30;76.60;;;;;;5089908;28;20052;-89
2022/03/04 00:05:22;;;;;;;39.70;33.05;;;8.30;76.60;;;;;;5091288;28;20101;-89
2022/03/04 00:07:49;;;;;;;44.58;34.80;;;8.30;76.60;;;;;;5089234;28;20448;-89
2022/03/04 00:10:16;;;;;;;43.22;35.25;;;8.20;76.60;;;;;;5089820;28;20044;-88
2022/03/04 00:12:43;;;;;;;46.95;35.03;;;8.20;76.50;;;;;;5089693;28;20475;-88
2022/03/04 00:15:11;;;;;;;43.88;34.92;;;8.10;76.50;;;;;;5091494;28;20059;-88
2022/03/04 00:17:38;;;;;;;45.63;34.88;;;8.10;76.60;;;;;;5093722;28;20059;-88
2022/03/04 00:20:05;;;;;;;46.75;34.85;;;8.10;76.60;;;;;;5095691;28;20048;-89
2022/03/04 00:22:33;;;;;;;44.35;34.53;;;8.00;76.70;;;;;;5092026;28;20048;-88
2022/03/04 00:25:00;;;;;;;47.80;34.58;;;8.00;76.70;;;;;;5093107;28;20040;-89
2022/03/04 00:27:27;;;;;;;47.47;35.88;;;8.00;76.70;;;;;;5093469;28;20044;-88
2022/03/04 00:29:54;;;;;;;42.55;34.42;;;7.90;76.70;;;;;;5093197;28;20098;-88
2022/03/04 00:32:21;;;;;;;42.35;35.22;;;7.90;76.70;;;;;;5094896;28;20048;-88
2022/03/04 00:34:48;;;;;;;47.25;36.95;;;7.90;76.70;;;;;;5091420;28;20051;-89
2022/03/04 00:37:15;;;;;;;43.50;36.03;;;7.90;76.70;;;;;;5093256;28;20048;-88
2022/03/04 00:39:42;;;;;;;43.97;36.17;;;7.80;76.70;;;;;;5093257;28;20052;-87
2022/03/04 00:42:08;;;;;;;43.80;35.60;;;7.80;76.70;;;;;;5093364;28;20047;-89
2022/03/04 00:44:35;;;;;;;46.25;37.15;;;7.70;76.70;;;;;;5093071;28;20459;-88
2022/03/04 00:47:04;;;;;;;44.20;35.63;;;7.70;76.70;;;;;;5095197;28;20054;-88
2022/03/04 00:49:32;;;;;;;43.92;35.28;;;7.70;76.70;;;;;;5092996;28;20047;-88
2022/03/04 00:51:59;;;;;;;42.83;34.85;;;7.60;76.80;;;;;;5093034;28;20040;-89
2022/03/04 00:54:25;;;;;;;41.33;35.40;;;7.60;76.80;;;;;;5092903;28;20052;-89
2022/03/04 00:56:53;;;;;;;42.65;36.15;;;7.60;76.80;;;;;;5093285;28;20056;-90
2022/03/04 00:59:19;;;;;;;42.38;34.60;;;7.60;76.80;;;;;;5094772;28;20060;-89
2022/03/04 01:01:46;;;;;;;41.88;34.20;;;7.50;76.90;;;;;;5090509;28;20048;-89
2022/03/04 01:04:14;;;;;;;41.25;34.30;;;7.50;76.90;;;;;;5092549;28;20040;-88
2022/03/04 01:06:41;;;;;;;42.38;34.67;;;7.50;76.90;;;;;;5092759;28;20048;-87
2022/03/04 01:09:08;;;;;;;44.05;33.70;;;7.50;76.90;;;;;;5092802;28;20123;-88
2022/03/04 01:11:35;;;;;;;38.03;32.95;;;7.40;77.00;;;;;;5092913;28;20047;-89
2022/03/04 01:14:03;;;;;;;40.03;32.92;;;7.40;77.00;;;;;;5092493;28;20044;-88
2022/03/04 01:16:30;;;;;;;41.75;33.72;;;7.40;77.10;;;;;;5092429;28;20078;-88
2022/03/04 01:18:57;;;;;;;43.33;33.10;;;7.40;77.10;;;;;;5092505;28;20479;-88
2022/03/04 01:21:24;;;;;;;39.53;34.05;;;7.40;77.10;;;;;;5092397;28;20067;-88
2022/03/04 01:23:51;;;;;;;37.80;32.15;;;7.40;77.20;;;;;;5092482;28;20048;-88
2022/03/04 01:26:18;;;;;;;43.17;33.30;;;7.40;77.20;;;;;;5093909;28;20060;-88
2022/03/04 01:28:45;;;;;;;46.20;33.83;;;7.30;77.20;;;;;;5090589;28;20468;-87
2022/03/04 01:31:12;;;;;;;38.67;32.83;;;7.40;77.30;;;;;;5092333;28;20052;-88
2022/03/04 01:33:39;;;;;;;40.22;33.15;;;7.30;77.30;;;;;;5090633;28;20052;-88
2022/03/04 01:36:06;;;;;;;36.17;32.08;;;7.30;77.30;;;;;;5092246;28;20047;-88
2022/03/04 01:38:34;;;;;;;39.72;33.03;;;7.30;77.30;;;;;;5093075;28;20048;-88
2022/03/04 01:41:02;;;;;;;39.45;33.20;;;7.30;77.40;;;;;;5092245;28;20059;-88
2022/03/04 01:43:29;;;;;;;39.75;34.45;;;7.30;77.40;;;;;;5091538;28;20056;-88
2022/03/04 01:45:56;;;;;;;40.45;33.53;;;7.30;77.50;;;;;;5091854;28;20047;-88
2022/03/04 01:48:24;;;;;;;43.97;34.15;;;7.30;77.40;;;;;;5091788;28;20523;-87
2022/03/04 01:50:51;;;;;;;37.63;31.30;;;7.30;77.50;;;;;;5090485;28;20097;-88
2022/03/04 01:53:18;;;;;;;40.65;31.63;;;7.20;77.50;;;;;;5089850;28;20059;-88
2022/03/04 01:55:45;;;;;;;40.20;32.33;;;7.20;77.50;;;;;;5089199;28;20052;-88
2022/03/04 01:58:12;;;;;;;37.85;32.20;;;7.20;77.50;;;;;;5091451;28;20040;-87
2022/03/04 02:00:39;;;;;;;37.67;31.38;;;7.20;77.50;;;;;;5091672;28;20052;-88
2022/03/04 02:03:11;;;;;;;35.90;31.40;;;7.20;77.50;;;;;;5091650;28;20135;-87
2022/03/04 02:05:38;;;;;;;34.33;30.67;;;7.20;77.50;;;;;;5091512;28;20063;-87
2022/03/04 02:08:06;;;;;;;40.45;32.25;;;7.20;77.50;;;;;;5093745;28;20056;-88
2022/03/04 02:10:33;;;;;;;37.90;31.10;;;7.10;77.40;;;;;;5091178;28;20109;-88
2022/03/04 02:13:00;;;;;;;38.75;31.45;;;7.20;77.40;;;;;;5091293;28;20217;-88
2022/03/04 02:15:27;;;;;;;37.08;31.73;;;7.10;77.40;;;;;;5091302;28;20089;-90
2022/03/04 02:17:53;;;;;;;36.80;32.00;;;7.10;77.30;;;;;;5090009;28;20825;-88
2022/03/04 02:20:22;;;;;;;37.40;30.33;;;7.00;77.30;;;;;;5093372;28;20094;-87
2022/03/04 02:22:50;;;;;;;35.92;30.60;;;7.00;77.30;;;;;;5090484;28;20052;-89
2022/03/04 02:25:17;;;;;;;36.65;31.23;;;7.00;77.30;;;;;;5090611;28;20067;-88
2022/03/04 02:27:45;;;;;;;38.03;31.83;;;6.90;77.30;;;;;;5091190;28;20097;-90
2022/03/04 02:30:12;;;;;;;41.50;31.42;;;6.90;77.30;;;;;;5091169;28;20521;-88
2022/03/04 02:32:38;;;;;;;38.40;32.25;;;6.90;77.30;;;;;;5091127;28;20044;-89
2022/03/04 02:35:06;;;;;;;39.90;31.70;;;6.90;77.40;;;;;;5093199;28;20055;-89
2022/03/04 02:37:34;;;;;;;38.22;31.35;;;6.90;77.40;;;;;;5090248;28;20052;-88
2022/03/04 02:40:02;;;;;;;37.50;31.27;;;6.90;77.40;;;;;;5090508;28;20524;-89
2022/03/04 02:42:29;;;;;;;40.30;32.35;;;6.90;77.40;;;;;;5090789;28;20056;-87
2022/03/04 02:44:56;;;;;;;39.97;31.15;;;6.90;77.40;;;;;;5090772;28;20052;-88
2022/03/04 02:47:22;;;;;;;37.17;30.42;;;6.80;77.40;;;;;;5092334;28;20067;-88
2022/03/04 02:49:49;;;;;;;40.35;32.15;;;6.80;77.40;;;;;;5090033;28;20074;-87
2022/03/04 02:52:16;;;;;;;36.75;31.35;;;6.80;77.40;;;;;;5090617;28;20043;-89
2022/03/04 02:54:43;;;;;;;37.55;30.77;;;6.70;77.40;;;;;;5090344;28;20051;-89
2022/03/04 02:57:10;;;;;;;35.90;30.33;;;6.70;77.40;;;;;;5089350;28;20502;-88
2022/03/04 02:59:37;;;;;;;37.20;30.42;;;6.70;77.40;;;;;;5090740;28;20081;-89
2022/03/04 03:02:04;;;;;;;38.42;30.83;;;6.70;77.40;;;;;;5092678;28;20479;-88
2022/03/04 03:04:31;;;;;;;35.10;29.73;;;6.70;77.40;;;;;;5090301;28;20077;-89
2022/03/04 03:06:59;;;;;;;35.88;31.13;;;6.60;77.40;;;;;;5090445;28;20044;-89
2022/03/04 03:09:26;;;;;;;36.63;30.35;;;6.60;77.40;;;;;;5090219;28;20048;-88
2022/03/04 03:11:53;;;;;;;36.17;30.05;;;6.60;77.40;;;;;;5090471;28;20051;-87
2022/03/04 03:14:20;;;;;;;38.13;31.42;;;6.60;77.50;;;;;;5092487;28;20468;-88
2022/03/04 03:16:47;;;;;;;34.58;30.13;;;6.60;77.50;;;;;;5091091;28;20081;-88
2022/03/04 03:19:14;;;;;;;35.97;29.95;;;6.60;77.50;;;;;;5090379;28;20035;-88
2022/03/04 03:21:41;;;;;;;37.78;30.83;;;6.60;77.60;;;;;;5090259;28;20070;-88
2022/03/04 03:24:08;;;;;;;36.78;31.58;;;6.60;77.60;;;;;;5090160;28;20040;-88
2022/03/04 03:26:35;;;;;;;36.90;30.58;;;6.60;77.60;;;;;;5090271;28;20056;-88
2022/03/04 03:29:02;;;;;;;38.35;29.98;;;6.60;77.70;;;;;;5092323;28;20043;-88
2022/03/04 03:31:29;;;;;;;36.20;30.33;;;6.60;77.80;;;;;;5090158;28;20517;-87
2022/03/04 03:33:57;;;;;;;37.30;31.17;;;6.60;77.80;;;;;;5090089;28;20044;-88
2022/03/04 03:36:24;;;;;;;37.40;30.25;;;6.60;77.80;;;;;;5088669;28;20055;-87
2022/03/04 03:38:50;;;;;;;37.78;30.50;;;6.60;77.90;;;;;;5089940;28;20040;-87
2022/03/04 03:41:18;;;;;;;36.88;32.35;;;6.60;77.90;;;;;;5092369;28;20055;-89
2022/03/04 03:43:45;;;;;;;40.22;31.17;;;6.60;78.00;;;;;;5090458;28;20040;-88
2022/03/04 03:46:12;;;;;;;35.53;30.20;;;6.60;78.00;;;;;;5089851;28;20040;-89
2022/03/04 03:48:40;;;;;;;35.28;29.95;;;6.60;78.00;;;;;;5091335;28;20502;-89
2022/03/04 03:51:08;;;;;;;35.63;30.70;;;6.60;78.10;;;;;;5094217;28;20078;-89
2022/03/04 03:53:35;;;;;;;39.45;31.95;;;6.60;78.10;;;;;;5093789;28;20585;-89
2022/03/04 03:56:02;;;;;;;35.08;31.23;;;6.60;78.10;;;;;;5096275;28;20056;-89
2022/03/04 03:58:29;;;;;;;35.55;31.08;;;6.60;78.10;;;;;;5092501;28;20051;-89
2022/03/04 04:00:58;;;;;;;34.85;30.70;;;6.60;78.10;;;;;;5093957;28;20093;-88
2022/03/04 04:03:25;;;;;;;37.00;30.77;;;6.70;78.20;;;;;;5094063;28;20414;-88
2022/03/04 04:05:52;;;;;;;36.42;30.50;;;6.60;78.20;;;;;;5093980;28;20102;-88
2022/03/04 04:08:19;;;;;;;35.50;30.42;;;6.70;78.20;;;;;;5095873;28;20055;-88
2022/03/04 04:10:46;;;;;;;40.05;30.88;;;6.60;78.30;;;;;;5091441;28;20494;-88
2022/03/04 04:13:13;;;;;;;36.28;29.88;;;6.70;78.30;;;;;;5093572;28;20467;-89
2022/03/04 04:15:40;;;;;;;36.55;30.35;;;6.70;78.40;;;;;;5092260;28;20051;-87
2022/03/04 04:18:08;;;;;;;36.47;31.15;;;6.70;78.40;;;;;;5093861;28;20043;-87
2022/03/04 04:20:35;;;;;;;38.35;30.65;;;6.70;78.40;;;;;;5093952;28;20064;-88
2022/03/04 04:23:02;;;;;;;34.58;30.40;;;6.70;78.50;;;;;;5093188;28;20498;-89
2022/03/04 04:25:29;;;;;;;34.13;30.42;;;6.70;78.50;;;;;;5093274;28;20060;-89
2022/03/04 04:27:56;;;;;;;35.85;30.67;;;6.70;78.50;;;;;;5093452;28;20044;-90
2022/03/04 04:30:23;;;;;;;37.95;30.30;;;6.70;78.60;;;;;;5093463;28;20101;-88
2022/03/04 04:32:50;;;;;;;34.72;29.67;;;6.70;78.60;;;;;;5077576;28;20102;-89
2022/03/04 04:35:17;;;;;;;40.35;33.53;;;6.70;78.60;;;;;;5091209;28;20105;-88
2022/03/04 04:37:43;;;;;;;39.10;32.28;;;6.70;78.60;;;;;;5093015;28;20501;-87
2022/03/04 04:40:11;;;;;;;34.55;30.83;;;6.80;78.70;;;;;;5093245;28;20157;-86
2022/03/04 04:42:38;;;;;;;34.97;30.13;;;6.80;78.70;;;;;;5093152;28;20506;-88
2022/03/04 04:45:05;;;;;;;37.78;33.45;;;6.80;78.80;;;;;;5093163;28;20521;-87
2022/03/04 04:47:33;;;;;;;38.80;32.08;;;6.80;78.80;;;;;;5093764;28;20529;-87
2022/03/04 04:50:00;;;;;;;38.80;32.05;;;6.80;78.90;;;;;;5094642;28;20513;-87
2022/03/04 04:52:27;;;;;;;36.97;31.75;;;6.80;78.90;;;;;;5092874;28;20517;-87
2022/03/04 04:54:54;;;;;;;34.65;30.45;;;6.80;78.90;;;;;;5091450;28;20044;-88
2022/03/04 04:57:21;;;;;;;39.80;31.42;;;6.80;79.00;;;;;;5093112;28;20044;-88
2022/03/04 04:59:48;;;;;;;38.60;32.67;;;6.80;79.00;;;;;;5092338;28;20052;-88
2022/03/04 05:02:15;;;;;;;39.53;31.80;;;6.90;79.00;;;;;;5094687;28;20094;-88
2022/03/04 05:04:42;;;;;;;39.22;30.50;;;6.80;79.00;;;;;;5092333;28;20130;-88
2022/03/04 05:07:09;;;;;;;35.85;31.05;;;6.90;79.00;;;;;;5092600;28;20094;-88
2022/03/04 05:09:37;;;;;;;35.85;31.60;;;6.90;79.00;;;;;;5092650;28;20460;-89
2022/03/04 05:12:04;;;;;;;39.45;31.83;;;6.90;79.00;;;;;;5092698;28;20048;-89
2022/03/04 05:14:31;;;;;;;38.83;31.75;;;6.90;79.10;;;;;;5093293;28;20544;-89
2022/03/04 05:16:58;;;;;;;38.80;32.88;;;6.90;79.10;;;;;;5094302;28;20044;-89
2022/03/04 05:19:25;;;;;;;36.75;32.65;;;6.90;79.10;;;;;;5092168;28;20101;-87
2022/03/04 05:21:51;;;;;;;36.80;32.78;;;6.90;79.10;;;;;;5091403;28;20051;-89
2022/03/04 05:24:19;;;;;;;36.25;31.85;;;6.90;79.20;;;;;;5092471;28;20044;-88
2022/03/04 05:26:45;;;;;;;36.03;32.00;;;6.90;79.20;;;;;;5092230;28;20069;-87
2022/03/04 05:29:13;;;;;;;37.25;31.63;;;6.90;79.20;;;;;;5094483;28;20072;-88
2022/03/04 05:31:42;;;;;;;38.50;31.73;;;6.90;79.20;;;;;;5092177;28;20048;-88
2022/03/04 05:34:10;;;;;;;42.42;32.92;;;6.90;79.20;;;;;;5090568;28;20097;-88
2022/03/04 05:36:40;;;;;;;40.13;32.50;;;6.90;79.20;;;;;;5090012;28;20048;-88
2022/03/04 05:39:07;;;;;;;35.50;31.65;;;6.90;79.30;;;;;;5092330;28;20119;-88
2022/03/04 05:41:34;;;;;;;38.20;32.45;;;6.90;79.30;;;;;;5092247;28;20052;-88
2022/03/04 05:44:03;;;;;;;39.75;32.65;;;7.00;79.30;;;;;;5091913;28;20044;-88
2022/03/04 05:46:32;;;;;;;40.67;33.30;;;7.00;79.30;;;;;;5091782;28;20052;-88
2022/03/04 05:48:59;;;;;;;36.80;32.15;;;6.90;79.30;;;;;;5091612;28;20044;-88
2022/03/04 05:51:26;;;;;;;40.38;34.05;;;7.00;79.30;;;;;;5092019;28;20052;-89
2022/03/04 05:53:53;;;;;;;37.97;32.42;;;7.00;79.30;;;;;;5091849;28;20441;-87
2022/03/04 05:56:21;;;;;;;38.80;33.10;;;7.00;79.30;;;;;;5093932;28;20056;-88
2022/03/04 05:58:48;;;;;;;41.10;34.17;;;7.00;79.30;;;;;;5092567;28;20044;-89
2022/03/04 06:01:16;;;;;;;37.50;31.50;;;7.00;79.40;;;;;;5091567;28;20460;-89
2022/03/04 06:03:43;;;;;;;37.92;32.40;;;7.00;79.40;;;;;;5091247;28;20082;-89
2022/03/04 06:06:11;;;;;;;37.50;32.17;;;7.00;79.40;;;;;;5091528;28;20051;-87
2022/03/04 06:08:39;;;;;;;41.75;33.60;;;7.00;79.40;;;;;;5091644;28;20525;-88
2022/03/04 06:11:10;;;;;;;42.83;34.58;;;6.90;79.40;;;;;;5093734;28;20048;-88
2022/03/04 06:13:38;;;;;;;37.05;33.10;;;7.00;79.40;;;;;;5089918;28;20097;-89
2022/03/04 06:16:05;;;;;;;42.45;33.88;;;7.00;79.40;;;;;;5089309;28;20044;-88
2022/03/04 06:18:32;;;;;;;39.70;32.50;;;6.90;79.40;;;;;;5086025;28;20071;-89
2022/03/04 06:21:00;;;;;;;38.28;33.22;;;6.90;79.40;;;;;;5090915;28;20044;-88
2022/03/04 06:23:27;;;;;;;41.53;34.47;;;7.00;79.40;;;;;;5093556;28;20506;-90
2022/03/04 06:25:55;;;;;;;42.63;34.47;;;6.90;79.40;;;;;;5091594;28;20513;-88
2022/03/04 06:28:22;;;;;;;43.28;33.72;;;6.90;79.40;;;;;;5090581;28;20489;-88
2022/03/04 06:30:49;;;;;;;42.38;36.47;;;6.90;79.40;;;;;;5088747;28;20040;-88
2022/03/04 06:33:32;;;;;;;42.25;35.88;;;7.00;79.50;;;;;;5090287;28;20506;-88
2022/03/04 06:36:11;;;;;;;40.30;34.80;;;6.90;79.40;;;;;;5096000;28;20048;-88
2022/03/04 06:38:41;;;;;;;40.97;34.75;;;6.90;79.50;;;;;;5090792;28;20457;-88
2022/03/04 06:41:10;;;;;;;40.85;35.28;;;6.90;79.50;;;;;;5092857;28;20105;-88
2022/03/04 06:43:38;;;;;;;39.47;34.15;;;6.90;79.50;;;;;;5090343;28;20460;-89
2022/03/04 06:46:06;;;;;;;41.60;34.45;;;6.90;79.50;;;;;;5090212;28;20052;-89
2022/03/04 06:48:34;;;;;;;39.17;34.95;;;6.90;79.60;;;;;;5090436;28;20505;-88
2022/03/04 06:51:03;;;;;;;40.25;34.78;;;6.90;79.60;;;;;;5089982;28;20127;-89
2022/03/04 06:53:30;;;;;;;42.03;37.08;;;6.90;79.60;;;;;;5091457;28;20048;-88
2022/03/04 06:55:57;;;;;;;41.70;36.42;;;6.90;79.60;;;;;;5091826;28;20044;-88
2022/03/04 06:58:25;;;;;;;42.22;35.42;;;6.90;79.60;;;;;;5089907;28;20055;-87
2022/03/04 07:00:51;;;;;;;44.00;36.20;;;6.90;79.60;;;;;;5089763;28;20429;-87
2022/03/04 07:03:19;;;;;;;41.00;34.15;;;6.90;79.60;;;;;;5090191;28;20135;-88
2022/03/04 07:05:47;;;;;;;40.67;34.67;;;6.90;79.60;;;;;;5090151;28;20040;-87
2022/03/04 07:08:14;;;;;;;43.58;37.03;;;6.90;79.60;;;;;;5092417;28;20052;-89
2022/03/04 07:10:43;;;;;;;44.25;35.92;;;6.90;79.60;;;;;;5090278;28;20052;-90
2022/03/04 07:13:12;;;;;;;42.05;36.75;;;6.90;79.70;;;;;;5094897;28;20112;-89
2022/03/04 07:15:39;;;;;;;51.70;38.75;;;6.90;79.70;;;;;;5089861;28;20048;-89
2022/03/04 07:18:07;;;;;;;43.35;38.25;;;6.90;79.70;;;;;;5090185;28;20498;-89
2022/03/04 07:20:34;;;;;;;45.47;37.65;;;6.90;79.70;;;;;;5090135;28;20460;-88
2022/03/04 07:23:01;;;;;;;47.92;38.70;;;6.90;79.70;;;;;;5089461;28;20141;-87
2022/03/04 07:25:28;;;;;;;53.88;41.53;;;6.90;79.70;;;;;;5089924;28;20052;-88
2022/03/04 07:27:55;;;;;;;50.88;38.70;;;6.90;79.70;;;;;;5089393;28;20093;-87
2022/03/04 07:30:22;;;;;;;49.67;39.55;;;6.90;79.70;;;;;;5088106;28;20048;-89
2022/03/04 07:32:49;;;;;;;49.20;39.55;;;6.90;79.70;;;;;;5074122;28;20098;-88
2022/03/04 07:35:16;;;;;;;51.08;40.72;;;6.90;79.70;;;;;;5091491;28;20472;-87
2022/03/04 07:37:43;;;;;;;49.78;39.50;;;6.90;79.60;;;;;;5089475;28;20056;-87
2022/03/04 07:40:14;;;;;;;51.97;40.97;;;6.90;79.60;;;;;;5090042;28;20098;-87
2022/03/04 07:42:42;;;;;;;50.35;41.10;;;6.90;79.60;;;;;;5089621;28;20410;-87
2022/03/04 07:45:10;;;;;;;52.05;41.70;;;6.90;79.60;;;;;;5088396;28;20106;-88
2022/03/04 07:47:39;;;;;;;60.60;41.42;;;6.90;79.60;;;;;;5088771;28;20059;-89
2022/03/04 07:50:13;;;;;;;48.90;39.95;;;6.90;79.50;;;;;;5091964;28;20051;-89
2022/03/04 07:52:41;;;;;;;47.60;39.63;;;6.90;79.50;;;;;;5090041;28;20109;-88
2022/03/04 07:55:12;;;;;;;51.63;40.33;;;7.00;79.50;;;;;;5090005;28;20076;-88
2022/03/04 07:57:40;;;;;;;56.28;42.20;;;7.00;79.50;;;;;;5088374;28;20055;-88
2022/03/04 08:00:10;;;;;;;49.92;40.85;;;7.00;79.40;;;;;;5088656;28;20044;-88
2022/03/04 08:02:38;;;;;;;53.03;41.05;;;6.90;79.30;;;;;;5089593;28;20429;-88
2022/03/04 08:05:08;;;;;;;53.97;43.65;;;7.00;79.30;;;;;;5091420;28;20044;-89
2022/03/04 08:07:36;;;;;;;58.58;42.45;;;7.00;79.30;;;;;;5089534;28;20090;-88
2022/03/04 08:10:08;;;;;;;50.55;40.97;;;7.00;79.20;;;;;;5089867;28;20036;-89
2022/03/04 08:12:37;;;;;;;49.60;39.67;;;7.00;79.20;;;;;;5093188;28;20052;-88
2022/03/04 08:15:10;;;;;;;52.63;42.80;;;7.10;79.20;;;;;;5089362;28;20047;-88
2022/03/04 08:17:38;;;;;;;53.63;41.70;;;7.10;79.10;;;;;;5089675;28;20055;-90
2022/03/04 08:20:06;;;;;;;50.88;41.22;;;7.20;79.10;;;;;;5091603;28;20097;-89
2022/03/04 08:22:32;;;;;;;53.13;42.70;;;7.20;79.10;;;;;;5087898;28;20558;-89
2022/03/04 08:25:00;;;;;;;54.90;42.50;;;7.20;79.10;;;;;;5088478;28;20039;-89
2022/03/04 08:27:27;;;;;;;50.97;41.60;;;7.20;79.10;;;;;;5089023;28;20047;-89
2022/03/04 08:29:54;;;;;;;51.08;40.22;;;7.30;79.00;;;;;;5089647;28;20524;-89
2022/03/04 08:32:23;;;;;;;56.88;43.17;;;7.30;78.90;;;;;;5091430;28;20044;-89
2022/03/04 08:34:56;;;;;;;55.53;43.13;;;7.30;79.00;;;;;;5090589;28;20059;-88
2022/03/04 08:37:23;;;;;;;51.75;41.90;;;7.30;78.90;;;;;;5093379;28;20055;-89
2022/03/04 08:39:50;;;;;;;54.25;42.40;;;7.40;78.90;;;;;;5092976;28;20184;-89
2022/03/04 08:42:17;;;;;;;52.80;41.90;;;7.40;78.90;;;;;;5092560;28;20464;-89
2022/03/04 08:44:44;;;;;;;50.88;42.22;;;7.40;78.80;;;;;;5093197;28;20254;-90
2022/03/04 08:47:11;;;;;;;50.55;40.85;;;7.40;78.70;;;;;;5095137;28;20101;-89
2022/03/04 08:49:38;;;;;;;49.97;40.80;;;7.50;78.70;;;;;;5086772;28;20048;-88
2022/03/04 08:52:06;;;;;;;49.17;38.85;;;7.50;78.50;;;;;;5093321;28;20460;-89
2022/03/04 08:54:33;;;;;;;45.20;38.17;;;7.50;78.40;;;;;;5092990;28;20387;-91
2022/03/04 08:57:00;;;;;;;49.67;39.70;;;7.60;78.20;;;;;;5091115;28;20044;-89
2022/03/04 08:59:27;;;;;;;47.35;39.17;;;7.60;78.10;;;;;;5094488;28;20048;-89
2022/03/04 09:01:54;;;;;;;47.33;39.65;;;7.70;78.00;;;;;;5091235;28;20444;-89
2022/03/04 09:04:21;;;;;;;51.20;40.38;;;7.70;77.90;;;;;;5092402;28;20047;-90
2022/03/04 09:06:48;;;;;;;52.08;40.95;;;7.70;77.80;;;;;;5092579;28;20101;-89
2022/03/04 09:09:15;;;;;;;46.58;38.13;;;7.70;77.70;;;;;;5092632;28;20093;-90
2022/03/04 09:11:43;;;;;;;53.53;40.47;;;7.80;77.60;;;;;;5097635;28;20079;-90
2022/03/04 09:14:10;;;;;;;53.92;39.63;;;7.80;77.50;;;;;;5094557;28;20094;-88
2022/03/04 09:16:37;;;;;;;45.55;38.75;;;7.80;77.40;;;;;;5092379;28;20041;-89
2022/03/04 09:19:04;;;;;;;47.20;39.03;;;7.90;77.30;;;;;;5092144;28;20056;-88
2022/03/04 09:21:32;;;;;;;46.88;38.15;;;7.90;77.30;;;;;;5092269;28;20566;-90
2022/03/04 09:23:59;;;;;;;45.15;37.78;;;7.90;77.20;;;;;;5092824;28;20047;-89
2022/03/04 09:26:28;;;;;;;48.50;37.60;;;8.00;77.20;;;;;;5093555;28;20051;-89
2022/03/04 09:28:55;;;;;;;48.92;38.33;;;8.00;77.10;;;;;;5093844;28;20048;-89
2022/03/04 09:31:22;;;;;;;47.17;37.58;;;8.00;77.10;;;;;;5092570;28;20479;-90
2022/03/04 09:33:49;;;;;;;46.67;38.30;;;8.10;77.00;;;;;;5092399;28;20058;-89
2022/03/04 09:36:16;;;;;;;45.55;38.08;;;8.20;77.00;;;;;;5092433;28;20044;-90
2022/03/04 09:38:43;;;;;;;49.13;38.83;;;8.20;76.90;;;;;;5092380;28;20540;-88
2022/03/04 09:41:11;;;;;;;47.15;38.22;;;8.30;76.90;;;;;;5094006;28;20047;-90
2022/03/04 09:43:39;;;;;;;46.63;38.78;;;8.30;76.90;;;;;;5092009;28;20056;-86
2022/03/04 09:46:07;;;;;;;51.58;41.40;;;8.40;76.90;;;;;;5091677;28;20051;-85
2022/03/04 09:48:40;;;;;;;52.70;42.13;;;8.40;76.90;;;;;;5091876;28;20530;-85
2022/03/04 09:51:08;;;;;;;49.85;39.25;;;8.50;76.90;;;;;;5091972;28;20040;-85
2022/03/04 09:53:35;;;;;;;52.40;41.22;;;8.60;77.00;;;;;;5092079;28;20606;-85
2022/03/04 09:56:03;;;;;;;52.20;39.22;;;8.70;77.00;;;;;;5091635;28;20105;-85
2022/03/04 09:58:30;;;;;;;47.70;38.97;;;8.80;76.90;;;;;;5091786;28;20044;-86
2022/03/04 10:00:58;;;;;;;51.08;41.10;;;8.90;76.90;;;;;;5091693;28;20044;-85
2022/03/04 10:03:30;;;;;;;50.28;40.67;;;9.00;76.80;;;;;;5091638;28;20050;-85
2022/03/04 10:06:04;;;;;;;55.72;41.13;;;9.20;76.70;;;;;;5090284;28;20044;-84
2022/03/04 10:08:41;;;;;;;52.00;41.40;;;9.30;76.60;;;;;;5092329;28;20048;-85
2022/03/04 10:11:09;;;;;;;53.80;40.72;;;9.40;76.50;;;;;;5092148;28;20078;-85
2022/03/04 10:13:47;;;;;;;47.63;39.03;;;9.50;76.40;;;;;;5091397;28;20052;-84
2022/03/04 10:16:25;;;;;;;46.55;37.95;;;9.70;76.20;;;;;;5090040;28;20044;-86
2022/03/04 10:19:13;;;;;;;47.17;38.75;;;9.90;76.00;;;;;;5088954;28;20094;-84
2022/03/04 10:21:57;;;;;;;47.00;38.05;;;9.90;75.80;;;;;;5087311;28;20048;-84
2022/03/04 10:24:35;;;;;;;52.33;39.95;;;10.10;75.60;;;;;;5090747;28;20052;-85
2022/03/04 10:27:03;;;;;;;46.78;38.25;;;10.20;75.40;;;;;;5075981;28;20056;-86
2022/03/04 10:29:42;;;;;;;49.90;38.10;;;10.30;75.30;;;;;;5091248;28;20048;-86
2022/03/04 10:32:16;;;;;;;50.95;39.40;;;10.40;75.10;;;;;;5091865;28;20048;-86
2022/03/04 10:34:51;;;;;;;51.63;39.85;;;10.60;74.90;;;;;;5091298;28;20460;-85
2022/03/04 10:37:41;;;;;;;49.88;39.08;;;10.70;74.70;;;;;;5090602;28;20052;-85
2022/03/04 10:40:13;;;;;;;46.90;38.33;;;10.80;74.60;;;;;;5089921;28;20505;-86
2022/03/04 10:42:43;;;;;;;47.28;39.30;;;10.90;74.40;;;;;;5090329;28;20052;-87
2022/03/04 10:45:21;;;;;;;47.03;37.38;;;11.00;74.20;;;;;;5089519;28;20605;-85
2022/03/04 10:47:59;;;;;;;46.97;37.55;;;11.10;74.00;;;;;;5090877;28;20044;-85
2022/03/04 10:50:44;;;;;;;46.60;37.20;;;11.20;73.80;;;;;;5088956;28;20516;-86
2022/03/04 10:53:16;;;;;;;46.25;36.97;;;11.40;73.60;;;;;;5091546;28;20052;-88
2022/03/04 10:56:15;;;;;;;45.60;37.17;;;11.40;73.40;;;;;;5090620;28;20048;-86
2022/03/04 10:58:42;;;;;;;43.28;36.03;;;11.60;73.10;;;;;;5024844;28;20617;-86
2022/03/04 11:01:19;;;;;;;45.92;36.75;;;11.70;73.00;;;;;;5008998;28;20049;-85
2022/03/04 11:03:47;;;;;;;45.03;37.10;;;11.80;72.70;;;;;;5025462;28;20096;-86
2022/03/04 11:06:16;;;;;;;47.28;37.58;;;11.90;72.50;;;;;;5026820;28;20512;-86
2022/03/04 11:08:44;;;;;;;41.38;35.30;;;11.90;72.40;;;;;;5028519;28;20088;-86
2022/03/04 11:11:12;;;;;;;46.35;36.45;;;12.00;72.20;;;;;;5026187;28;20099;-91
2022/03/04 11:13:39;;;;;;;39.65;34.30;;;12.10;72.10;;;;;;5025229;28;20471;-85
2022/03/04 11:16:08;;;;;;;43.97;35.38;;;12.10;71.90;;;;;;5025266;28;20042;-86
2022/03/04 11:18:35;;;;;;;45.80;36.67;;;12.20;71.80;;;;;;5025291;28;20053;-86
2022/03/04 11:21:06;;;;;;;48.67;36.80;;;12.20;71.60;;;;;;5028198;28;20069;-85
2022/03/04 11:23:36;;;;;;;42.95;34.47;;;12.20;71.50;;;;;;5027208;28;20057;-86
2022/03/04 11:26:07;;;;;;;46.55;37.85;;;12.20;71.30;;;;;;5027907;28;20049;-86
2022/03/04 11:28:41;;;;;;;47.85;36.42;;;12.20;71.20;;;;;;5029294;28;20097;-85
2022/03/04 11:31:10;;;;;;;45.28;36.85;;;12.20;71.10;;;;;;5025008;28;20084;-85
2022/03/04 11:33:44;;;;;;;44.83;35.58;;;12.20;71.00;;;;;;5037584;28;20487;-85
2022/03/04 11:36:19;;;;;;;40.67;34.17;;;12.20;71.00;;;;;;5090044;28;20123;-85
2022/03/04 11:38:49;;;;;;;42.58;35.58;;;12.30;70.90;;;;;;5088024;28;20048;-85
2022/03/04 11:41:22;;;;;;;44.67;36.05;;;12.30;70.80;;;;;;5091158;28;20040;-85
2022/03/04 11:43:55;;;;;;;41.63;34.72;;;12.20;70.70;;;;;;5090911;28;20097;-86
2022/03/04 11:46:41;;;;;;;43.75;35.95;;;12.30;70.70;;;;;;5089892;28;20040;-86
2022/03/04 11:49:34;;;;;;;44.13;35.60;;;12.20;70.60;;;;;;5089216;28;20121;-86
2022/03/04 11:52:26;;;;;;;42.65;35.80;;;12.30;70.50;;;;;;5089353;28;20040;-86
2022/03/04 11:54:56;;;;;;;49.85;37.55;;;12.30;70.50;;;;;;5092150;28;20052;-86
2022/03/04 11:57:35;;;;;;;41.80;36.65;;;12.40;70.50;;;;;;5101372;28;20475;-86
2022/03/04 12:00:15;;;;;;;43.35;36.85;;;12.40;70.40;;;;;;5075613;28;20048;-86
2022/03/04 12:02:42;;;;;;;46.33;35.35;;;12.40;70.40;;;;;;5089119;28;20532;-87
2022/03/04 12:05:13;;;;;;;45.03;35.47;;;12.40;70.30;;;;;;5090256;28;20103;-86
2022/03/04 12:07:45;;;;;;;42.05;35.80;;;12.40;70.30;;;;;;5089378;28;20062;-86
2022/03/04 12:10:14;;;;;;;47.45;36.38;;;12.40;70.30;;;;;;5091397;28;20463;-85
2022/03/04 12:13:18;;;;;;;44.00;35.92;;;12.40;70.20;;;;;;5093264;28;20467;-86
2022/03/04 12:16:01;;;;;;;46.25;36.67;;;12.50;70.20;;;;;;5028099;28;20041;-86
2022/03/04 12:18:45;;;;;;;42.78;36.72;;;12.40;70.20;;;;;;5027603;28;20627;-85
2022/03/04 12:21:36;;;;;;;42.88;36.28;;;12.50;70.20;;;;;;5029160;28;20096;-86
2022/03/04 12:24:04;;;;;;;44.30;36.17;;;12.50;70.20;;;;;;5016708;28;20045;-85
2022/03/04 12:26:43;;;;;;;42.45;35.28;;;12.50;70.20;;;;;;5030680;28;20172;-86
2022/03/04 12:29:13;;;;;;;44.25;33.63;;;12.50;70.10;;;;;;5032742;28;20104;-86
2022/03/04 12:31:44;;;;;;;45.45;35.58;;;12.50;70.10;;;;;;5036757;28;20048;-86
2022/03/04 12:34:17;;;;;;;41.17;34.95;;;12.50;70.10;;;;;;5032014;28;20061;-85
2022/03/04 12:36:45;;;;;;;42.20;34.47;;;12.50;70.00;;;;;;5027865;28;20054;-87
2022/03/04 12:39:15;;;;;;;41.03;34.03;;;12.60;70.00;;;;;;5029007;28;20057;-87
2022/03/04 12:41:42;;;;;;;43.78;32.80;;;12.60;70.00;;;;;;5031111;28;20084;-87
2022/03/04 12:44:10;;;;;;;39.20;33.30;;;12.60;70.00;;;;;;5032686;28;20053;-87